Time;durP1;ratioP1;P1;durP2;ratioP2;P2;SDS_P1;SDS_P2;PMS_P1;PMS_P2;Temp;Humidity;BMP_temperature;BMP_pressure;BME280_temperature;BME280_humidity;BME280_pressure;Samples;Min_cycle;Max_cycle;Signal;HPM_P1;HPM_P2
2022/04/11 00:01:09;;;;;;;12.40;3.97;;;;;;;-2.14;100.00;101963.66;4966091;28;20034;-72
2022/04/11 00:03:34;;;;;;;7.93;3.25;;;;;;;-2.20;100.00;101957.03;4952236;28;20812;-71
2022/04/11 00:06:00;;;;;;;6.53;3.22;;;;;;;-2.30;100.00;101955.94;4965388;28;20254;-71
2022/04/11 00:08:25;;;;;;;6.80;2.95;;;;;;;-2.36;100.00;101957.19;4937516;28;20950;-70
2022/04/11 00:10:51;;;;;;;8.23;4.07;;;;;;;-2.35;100.00;101958.91;4965948;28;20091;-71
2022/04/11 00:13:16;;;;;;;7.35;3.72;;;;;;;-2.34;100.00;101955.31;4950117;28;20054;-70
2022/04/11 00:15:41;;;;;;;6.60;3.50;;;;;;;-2.38;100.00;101959.09;4965059;28;20033;-71
2022/04/11 00:18:08;;;;;;;8.48;3.60;;;;;;;-2.37;100.00;101959.94;4947046;28;20053;-71
2022/04/11 00:20:33;;;;;;;7.80;3.40;;;;;;;-2.36;100.00;101957.19;4963713;28;20391;-71
2022/04/11 00:22:59;;;;;;;9.48;3.60;;;;;;;-2.32;100.00;101956.03;4965187;28;20497;-71
2022/04/11 00:25:24;;;;;;;6.60;3.65;;;;;;;-2.30;100.00;101950.66;4963821;28;20462;-71
2022/04/11 00:27:52;;;;;;;9.80;3.45;;;;;;;-2.36;100.00;101944.00;4965106;28;20034;-71
2022/04/11 00:30:18;;;;;;;9.68;3.13;;;;;;;-2.38;100.00;101948.53;4948823;28;20049;-71
2022/04/11 00:32:44;;;;;;;11.30;3.15;;;;;;;-2.41;100.00;101948.75;4968428;28;20084;-71
2022/04/11 00:35:09;;;;;;;9.43;3.35;;;;;;;-2.45;100.00;101948.09;4892147;28;1237630;-71
2022/04/11 00:37:35;;;;;;;12.10;4.25;;;;;;;-2.37;100.00;101947.59;4967090;28;20643;-72
2022/04/11 00:40:00;;;;;;;10.48;3.72;;;;;;;-2.30;100.00;101940.97;4959376;28;25846;-71
2022/04/11 00:42:29;;;;;;;6.53;3.28;;;;;;;-2.29;100.00;101942.63;4953207;28;20088;-72
2022/04/11 00:44:54;;;;;;;7.18;3.58;;;;;;;-2.27;100.00;101940.75;4964450;28;20360;-71
2022/04/11 00:47:20;;;;;;;10.77;3.28;;;;;;;-2.29;100.00;101934.72;4948032;28;20057;-72
2022/04/11 00:49:46;;;;;;;8.45;3.47;;;;;;;-2.27;100.00;101930.19;4965935;28;24198;-71
2022/04/11 00:52:12;;;;;;;8.45;3.47;;;;;;;-2.31;100.00;101922.59;4953833;28;20095;-71
2022/04/11 00:54:38;;;;;;;9.13;3.80;;;;;;;-2.28;100.00;101927.66;4962400;28;20044;-71
2022/04/11 00:57:04;;;;;;;7.05;3.72;;;;;;;-2.32;100.00;101929.66;4950658;28;20053;-71
2022/04/11 00:59:29;;;;;;;9.13;4.18;;;;;;;-2.40;100.00;101930.16;4966359;28;20041;-71
2022/04/11 01:01:55;;;;;;;8.07;4.63;;;;;;;-2.48;100.00;101926.34;4968286;28;20044;-71
2022/04/11 01:04:23;;;;;;;10.18;3.33;;;;;;;-2.61;100.00;101926.31;4948707;28;20634;-71
2022/04/11 01:06:55;;;;;;;6.35;3.67;;;;;;;-2.76;100.00;101933.44;4965168;28;20405;-71
2022/04/11 01:09:23;;;;;;;10.15;4.18;;;;;;;-2.85;100.00;101928.75;4950537;28;20053;-71
2022/04/11 01:11:48;;;;;;;11.77;3.60;;;;;;;-2.87;100.00;101928.03;4948829;28;20038;-71
2022/04/11 01:14:14;;;;;;;10.00;3.92;;;;;;;-2.87;100.00;101925.38;4946880;28;21138;-71
2022/04/11 01:16:39;;;;;;;7.72;3.75;;;;;;;-2.80;100.00;101929.31;4962303;28;20033;-70
2022/04/11 01:19:05;;;;;;;9.82;4.20;;;;;;;-2.75;100.00;101929.00;4933203;28;20046;-70
2022/04/11 01:21:31;;;;;;;8.05;3.65;;;;;;;-2.75;100.00;101929.84;4969817;28;20124;-70
2022/04/11 01:23:57;;;;;;;9.52;4.00;;;;;;;-2.73;100.00;101933.25;4964825;28;20065;-70
2022/04/11 01:26:22;;;;;;;8.50;3.72;;;;;;;-2.79;100.00;101923.09;4947953;28;22333;-70
2022/04/11 01:28:48;;;;;;;10.98;4.75;;;;;;;-2.85;100.00;101922.63;4965269;28;20251;-70
2022/04/11 01:31:15;;;;;;;10.23;3.90;;;;;;;-2.91;100.00;101918.63;4948659;28;23272;-71
2022/04/11 01:33:41;;;;;;;7.57;4.20;;;;;;;-2.85;100.00;101925.28;4963175;28;20548;-71
2022/04/11 01:36:07;;;;;;;10.35;3.33;;;;;;;-2.69;100.00;101924.19;4947695;28;20533;-71
2022/04/11 01:38:32;;;;;;;8.27;3.83;;;;;;;-2.64;100.00;101922.06;4965616;28;20033;-70
2022/04/11 01:40:58;;;;;;;8.80;4.30;;;;;;;-2.70;100.00;101917.22;4954943;28;20128;-71
2022/04/11 01:43:24;;;;;;;6.53;3.70;;;;;;;-2.69;100.00;101924.19;4964995;28;20230;-71
2022/04/11 01:45:50;;;;;;;8.48;3.80;;;;;;;-2.71;100.00;101920.78;4965110;28;20079;-70
2022/04/11 01:48:16;;;;;;;7.38;4.03;;;;;;;-2.72;100.00;101928.81;4953846;28;20053;-70
2022/04/11 01:50:42;;;;;;;15.63;4.68;;;;;;;-2.70;100.00;101925.13;4963699;28;20461;-70
2022/04/11 01:53:16;;;;;;;12.30;3.83;;;;;;;-2.74;100.00;101928.06;4952844;28;20065;-70
2022/04/11 01:55:41;;;;;;;;;;;;;;;-2.81;100.00;101926.75;4972355;28;20043;-70
2022/04/11 01:58:08;;;;;;;12.43;3.90;;;;;;;-2.87;100.00;101925.38;4954557;28;19925;-71
2022/04/11 02:00:34;;;;;;;7.47;4.10;;;;;;;-2.87;100.00;101922.75;4965324;28;20051;-71
2022/04/11 02:03:00;;;;;;;9.23;4.03;;;;;;;-2.86;100.00;101926.22;4949123;28;20042;-71
2022/04/11 02:05:27;;;;;;;8.40;4.18;;;;;;;-2.88;100.00;101924.53;4946149;28;20022;-70
2022/04/11 02:07:53;;;;;;;6.65;3.90;;;;;;;-2.87;100.00;101928.03;4952666;28;20045;-71
2022/04/11 02:10:18;;;;;;;13.57;4.65;;;;;;;-2.79;100.00;101922.25;4947637;28;20056;-71
2022/04/11 02:12:44;;;;;;;12.02;4.68;;;;;;;-2.68;100.00;101928.50;4960693;28;20087;-70
2022/04/11 02:15:11;;;;;;;9.77;4.40;;;;;;;-2.69;100.00;101918.91;4947733;28;20073;-70
2022/04/11 02:17:36;;;;;;;7.28;4.75;;;;;;;-2.64;100.00;101924.72;4962830;28;20030;-70
2022/04/11 02:20:02;;;;;;;10.30;5.20;;;;;;;-2.57;100.00;101924.31;4953543;28;20103;-71
2022/04/11 02:22:29;;;;;;;11.20;4.70;;;;;;;-2.60;100.00;101924.50;4950121;28;20513;-70
2022/04/11 02:24:55;;;;;;;8.25;4.65;;;;;;;-2.65;100.00;101923.03;4943723;28;20771;-70
2022/04/11 02:27:20;;;;;;;11.23;6.00;;;;;;;-2.67;100.00;101918.78;4951937;28;20069;-71
2022/04/11 02:29:45;;;;;;;8.23;5.00;;;;;;;-2.73;100.00;101920.06;4964907;28;20033;-70
2022/04/11 02:32:11;;;;;;;8.35;4.43;;;;;;;-2.77;100.00;101925.59;4947390;28;20180;-71
2022/04/11 02:34:36;;;;;;;16.30;5.05;;;;;;;-2.82;100.00;101925.91;4961990;28;20112;-70
2022/04/11 02:37:02;;;;;;;8.73;4.45;;;;;;;-2.89;100.00;101922.00;4931883;28;21445;-70
2022/04/11 02:39:27;;;;;;;11.73;5.30;;;;;;;-2.86;100.00;101920.94;4963473;28;20179;-70
2022/04/11 02:41:53;;;;;;;11.50;5.45;;;;;;;-2.80;100.00;101915.28;4946980;28;20042;-70
2022/04/11 02:44:18;;;;;;;11.63;5.15;;;;;;;-2.78;100.00;101922.13;4962774;28;20081;-70
2022/04/11 02:46:44;;;;;;;8.45;4.43;;;;;;;-2.79;100.00;101917.81;4967448;28;20056;-71
2022/04/11 02:49:10;;;;;;;12.35;5.10;;;;;;;-2.79;100.00;101917.81;4945337;28;20426;-71
2022/04/11 02:51:35;;;;;;;10.52;4.63;;;;;;;-2.83;100.00;101905.78;4963518;28;20158;-71
2022/04/11 02:54:07;;;;;;;9.05;5.18;;;;;;;-2.87;100.00;101909.56;4948911;28;20104;-70
2022/04/11 02:56:33;;;;;;;8.20;5.05;;;;;;;-2.88;100.00;101913.13;4966837;28;20061;-70
2022/04/11 02:58:59;;;;;;;11.70;4.55;;;;;;;-2.91;100.00;101908.06;4933631;28;20053;-72
2022/04/11 03:01:24;;;;;;;8.75;4.45;;;;;;;-2.95;100.00;101914.47;4963679;28;20040;-71
2022/04/11 03:03:50;;;;;;;10.63;4.50;;;;;;;-2.97;100.00;101908.47;4936330;28;20061;-71
2022/04/11 03:06:15;;;;;;;9.45;4.68;;;;;;;-2.98;100.00;101912.91;4963173;28;20030;-71
2022/04/11 03:08:41;;;;;;;12.05;4.93;;;;;;;-2.93;100.00;101909.94;4963525;28;21019;-71
2022/04/11 03:11:06;;;;;;;10.40;5.25;;;;;;;-2.89;100.00;101911.44;4948686;28;20077;-71
2022/04/11 03:13:31;;;;;;;10.80;5.25;;;;;;;-2.84;100.00;101909.38;4962871;28;20030;-71
2022/04/11 03:15:57;;;;;;;11.55;4.72;;;;;;;-2.81;100.00;101910.94;4932066;28;20053;-71
2022/04/11 03:18:22;;;;;;;9.75;4.70;;;;;;;-2.81;100.00;101909.13;4981104;28;20067;-71
2022/04/11 03:20:48;;;;;;;16.50;5.60;;;;;;;-2.85;100.00;101902.38;4941141;28;20054;-71
2022/04/11 03:23:15;;;;;;;12.80;5.03;;;;;;;-2.83;100.00;101902.28;4972650;28;20038;-71
2022/04/11 03:25:41;;;;;;;8.18;4.72;;;;;;;-2.83;100.00;101910.22;4962929;28;22576;-71
2022/04/11 03:28:07;;;;;;;10.57;4.70;;;;;;;-2.83;100.00;101897.03;4958259;28;20093;-71
2022/04/11 03:30:32;;;;;;;13.25;5.22;;;;;;;-2.76;100.00;101907.06;4963312;28;21501;-71
2022/04/11 03:32:58;;;;;;;9.80;5.03;;;;;;;-2.69;100.00;101900.44;4950309;28;20049;-71
2022/04/11 03:35:23;;;;;;;17.60;5.05;;;;;;;-2.64;100.00;101895.69;4966734;28;20059;-71
2022/04/11 03:37:49;;;;;;;9.20;4.60;;;;;;;-2.53;100.00;101899.41;4953161;28;20049;-71
2022/04/11 03:40:14;;;;;;;12.02;5.07;;;;;;;-2.43;100.00;101898.69;4969336;28;20025;-71
2022/04/11 03:42:40;;;;;;;13.93;4.75;;;;;;;-2.27;100.00;101897.69;4963437;28;20510;-71
2022/04/11 03:45:08;;;;;;;13.82;5.05;;;;;;;-2.16;100.00;101906.56;4968300;28;20034;-71
2022/04/11 03:47:34;;;;;;;7.95;4.78;;;;;;;-2.00;100.00;101905.50;4955678;28;20038;-71
2022/04/11 03:49:59;;;;;;;12.38;5.45;;;;;;;-1.85;100.00;101904.47;4939735;28;20078;-71
2022/04/11 03:52:25;;;;;;;11.90;5.82;;;;;;;-1.69;100.00;101901.56;4966049;28;20064;-71
2022/04/11 03:54:50;;;;;;;11.18;5.43;;;;;;;-1.56;100.00;101898.94;4949252;28;20053;-71
2022/04/11 03:57:16;;;;;;;15.25;6.97;;;;;;;-1.51;100.00;101892.38;4969402;28;20036;-69
2022/04/11 03:59:41;;;;;;;10.45;5.40;;;;;;;-1.39;100.00;101906.50;4957206;28;20132;-71
2022/04/11 04:02:07;;;;;;;11.07;5.80;;;;;;;-1.29;100.00;101902.25;4966162;28;20037;-72
2022/04/11 04:04:32;;;;;;;11.43;5.47;;;;;;;-1.18;100.00;101908.59;4950811;28;20041;-71
2022/04/11 04:06:58;;;;;;;13.32;6.47;;;;;;;-1.10;100.00;101900.94;4981317;28;20133;-71
2022/04/11 04:09:23;;;;;;;10.32;5.68;;;;;;;-1.03;100.00;101908.31;4967283;28;21053;-71
2022/04/11 04:11:48;;;;;;;12.77;5.53;;;;;;;-0.99;100.00;101906.28;4948539;28;20131;-71
2022/04/11 04:14:14;;;;;;;8.73;5.75;;;;;;;-1.00;100.00;101904.59;4963394;28;20034;-71
2022/04/11 04:16:39;;;;;;;12.70;5.95;;;;;;;-0.91;100.00;101898.66;4948393;28;20505;-71
2022/04/11 04:19:05;;;;;;;13.13;6.60;;;;;;;-0.86;100.00;101904.44;4966557;28;20048;-71
2022/04/11 04:21:30;;;;;;;13.88;5.88;;;;;;;-0.81;100.00;101897.00;4948794;28;20065;-71
2022/04/11 04:23:56;;;;;;;11.23;6.45;;;;;;;-0.75;100.00;101901.84;4965381;28;20044;-71
2022/04/11 04:26:21;;;;;;;12.55;6.28;;;;;;;-0.74;100.00;101889.44;4963801;28;21152;-72
2022/04/11 04:28:46;;;;;;;13.52;6.75;;;;;;;-0.76;100.00;101900.16;4935931;28;20054;-71
2022/04/11 04:31:12;;;;;;;15.85;6.60;;;;;;;-0.73;100.00;101905.22;4965139;28;20030;-71
2022/04/11 04:33:38;;;;;;;9.05;5.63;;;;;;;-0.69;100.00;101900.53;4948803;28;20486;-71
2022/04/11 04:36:04;;;;;;;13.73;6.00;;;;;;;-0.64;100.00;101902.84;4963827;28;20113;-71
2022/04/11 04:38:30;;;;;;;12.60;6.40;;;;;;;-0.60;100.00;101907.78;4947307;28;20711;-71
2022/04/11 04:40:56;;;;;;;12.27;6.68;;;;;;;-0.56;100.00;101905.75;4964888;28;20119;-71
2022/04/11 04:43:22;;;;;;;14.77;6.00;;;;;;;-0.53;100.00;101902.88;4952337;28;20044;-71
2022/04/11 04:45:47;;;;;;;13.55;6.82;;;;;;;-0.46;100.00;101906.75;4964846;28;20508;-71
2022/04/11 04:48:13;;;;;;;14.90;6.43;;;;;;;-0.43;100.00;101905.69;4961923;28;20045;-71
2022/04/11 04:50:38;;;;;;;14.15;6.57;;;;;;;-0.44;100.00;101904.84;4951730;28;20053;-71
2022/04/11 04:53:04;;;;;;;12.85;5.95;;;;;;;-0.40;100.00;101911.59;4967135;28;20033;-71
2022/04/11 04:55:29;;;;;;;14.70;6.97;;;;;;;-0.34;100.00;101908.50;4949934;28;20135;-71
2022/04/11 04:57:55;;;;;;;12.13;6.93;;;;;;;-0.26;100.00;101902.63;4964382;28;20406;-70
2022/04/11 05:00:20;;;;;;;20.00;7.32;;;;;;;-0.17;100.00;101898.44;4951544;28;20928;-70
2022/04/11 05:02:46;;;;;;;15.18;7.57;;;;;;;-0.11;100.00;101903.25;4969102;28;20343;-70
2022/04/11 05:05:13;;;;;;;17.17;6.95;;;;;;;-0.07;100.00;101894.09;4957671;28;20052;-70
2022/04/11 05:07:39;;;;;;;15.90;7.20;;;;;;;-0.04;100.00;101901.81;4954961;28;20050;-70
2022/04/11 05:10:06;;;;;;;16.90;7.85;;;;;;;-0.03;100.00;101893.75;4981354;28;23608;-70
2022/04/11 05:12:41;;;;;;;19.80;7.75;;;;;;;0.01;100.00;101897.03;4949189;28;20539;-70
2022/04/11 05:15:07;;;;;;;13.88;6.72;;;;;;;0.06;100.00;101904.59;4978021;28;20425;-69
2022/04/11 05:17:33;;;;;;;13.82;6.82;;;;;;;0.12;100.00;101902.31;4953129;28;20053;-70
2022/04/11 05:19:58;;;;;;;16.58;7.82;;;;;;;0.18;100.00;101893.91;4963360;28;20031;-70
2022/04/11 05:22:24;;;;;;;14.68;7.47;;;;;;;0.29;100.00;101893.06;4947859;28;21166;-70
2022/04/11 05:24:49;;;;;;;15.20;7.70;;;;;;;0.42;100.00;101887.63;4963706;28;20050;-69
2022/04/11 05:27:14;;;;;;;17.15;7.82;;;;;;;0.52;100.00;101893.88;4961431;28;20034;-69
2022/04/11 05:29:40;;;;;;;20.08;8.13;;;;;;;0.63;100.00;101903.63;4954470;28;20112;-69
2022/04/11 05:32:06;;;;;;;16.48;8.63;;;;;;;0.75;100.00;101899.19;4966547;28;20602;-69
2022/04/11 05:34:31;;;;;;;19.77;8.27;;;;;;;0.84;100.00;101894.00;4946871;28;21799;-70
2022/04/11 05:36:56;;;;;;;15.60;7.65;;;;;;;0.94;100.00;101892.25;4961967;28;20038;-70
2022/04/11 05:39:22;;;;;;;21.75;8.80;;;;;;;1.06;100.00;101893.09;4946508;28;20057;-70
2022/04/11 05:41:47;;;;;;;17.90;8.52;;;;;;;1.16;100.00;101890.53;4968634;28;20037;-70
2022/04/11 05:44:13;;;;;;;15.77;9.18;;;;;;;1.28;100.00;101888.66;4944679;28;20084;-71
2022/04/11 05:46:38;;;;;;;17.75;8.23;;;;;;;1.39;100.00;101893.94;4963073;28;20037;-71
2022/04/11 05:49:04;;;;;;;16.98;8.50;;;;;;;1.48;100.00;101887.84;4960048;28;20037;-71
2022/04/11 05:51:29;;;;;;;18.85;7.97;;;;;;;1.65;100.00;101900.56;4951847;28;20054;-72
2022/04/11 05:53:55;;;;;;;15.52;8.25;;;;;;;1.78;100.00;101894.22;4967089;28;20040;-71
2022/04/11 05:56:20;;;;;;;15.00;7.70;;;;;;;1.92;100.00;101900.03;4948229;28;20096;-72
2022/04/11 05:58:45;;;;;;;15.20;7.88;;;;;;;2.03;100.00;101901.78;4956514;28;23506;-72
2022/04/11 06:01:11;;;;;;;15.00;8.38;;;;;;;2.12;100.00;101895.69;4947920;28;20072;-71
2022/04/11 06:03:37;;;;;;;17.45;8.23;;;;;;;2.23;100.00;101899.22;4968511;28;20048;-71
2022/04/11 06:06:03;;;;;;;16.95;8.48;;;;;;;2.28;100.00;101897.00;4964005;28;20038;-71
2022/04/11 06:08:28;;;;;;;14.77;7.43;;;;;;;2.33;100.00;101903.63;4967193;28;20135;-70
2022/04/11 06:10:54;;;;;;;14.43;7.95;;;;;;;2.40;100.00;101901.28;4965007;28;20505;-70
2022/04/11 06:13:19;;;;;;;15.10;7.30;;;;;;;2.39;100.00;101902.25;4947818;28;20144;-70
2022/04/11 06:15:45;;;;;;;13.60;7.50;;;;;;;2.41;100.00;101902.94;4962041;28;20604;-70
2022/04/11 06:18:10;;;;;;;17.45;8.80;;;;;;;2.53;100.00;101909.88;4949416;28;20555;-70
2022/04/11 06:20:36;;;;;;;11.77;7.38;;;;;;;2.61;100.00;101904.72;4970088;28;20038;-70
2022/04/11 06:23:03;;;;;;;9.57;6.40;;;;;;;2.71;100.00;101902.09;4945747;28;20041;-70
2022/04/11 06:25:28;;;;;;;16.35;7.40;;;;;;;2.83;100.00;101897.47;4964550;28;20091;-71
2022/04/11 06:27:53;;;;;;;17.85;7.25;;;;;;;2.92;100.00;101896.69;4978580;28;20762;-71
2022/04/11 06:30:19;;;;;;;16.67;6.40;;;;;;;2.99;100.00;101903.13;4951285;28;20066;-71
2022/04/11 06:32:44;;;;;;;14.18;6.88;;;;;;;3.14;100.00;101900.06;4963815;28;20647;-72
2022/04/11 06:35:10;;;;;;;15.80;6.93;;;;;;;3.31;100.00;101897.56;4945747;28;20061;-72
2022/04/11 06:37:35;;;;;;;11.15;6.35;;;;;;;3.45;100.00;101892.81;4965812;28;20034;-72
2022/04/11 06:40:02;;;;;;;13.90;7.22;;;;;;;3.66;100.00;101892.66;4950379;28;20058;-73
2022/04/11 06:42:28;;;;;;;12.13;6.53;;;;;;;3.83;100.00;101902.59;4966468;28;20450;-71
2022/04/11 06:44:53;;;;;;;19.65;6.32;;;;;;;3.98;100.00;101890.47;4940489;28;20048;-71
2022/04/11 06:47:21;;;;;;;9.93;5.65;;;;;;;4.21;100.00;101895.47;4957960;28;20038;-70
2022/04/11 06:49:46;;;;;;;11.02;5.40;;;;;;;4.41;100.00;101894.41;4944448;28;20041;-71
2022/04/11 06:52:12;;;;;;;10.60;4.68;;;;;;;4.48;100.00;101898.16;4933107;28;20104;-73
2022/04/11 06:54:38;;;;;;;11.57;4.53;;;;;;;4.66;100.00;101902.72;4964172;28;21132;-72
2022/04/11 06:57:04;;;;;;;7.78;4.47;;;;;;;4.72;100.00;101905.66;4946508;28;20057;-72
2022/04/11 06:59:29;;;;;;;10.23;4.05;;;;;;;4.79;100.00;101908.56;4972673;28;20041;-72
2022/04/11 07:01:54;;;;;;;11.05;4.60;;;;;;;5.09;100.00;101911.88;4952796;28;20050;-72
2022/04/11 07:04:20;;;;;;;10.70;4.72;;;;;;;5.32;100.00;101906.94;4968562;28;20042;-72
2022/04/11 07:06:46;;;;;;;11.25;4.45;;;;;;;5.56;100.00;101909.84;4958433;28;20490;-73
2022/04/11 07:09:12;;;;;;;6.45;3.15;;;;;;;5.63;100.00;101915.44;4963722;28;20037;-72
2022/04/11 07:11:37;;;;;;;11.93;3.15;;;;;;;5.80;100.00;101922.59;4969090;28;20101;-72
2022/04/11 07:14:04;;;;;;;8.10;3.20;;;;;;;5.93;100.00;101923.06;4954885;28;20076;-72
2022/04/11 07:16:29;;;;;;;7.82;3.33;;;;;;;6.25;100.00;101920.72;4966895;28;20041;-71
2022/04/11 07:18:55;;;;;;;7.15;3.70;;;;;;;6.58;100.00;101927.13;4954122;28;20060;-70
2022/04/11 07:21:20;;;;;;;11.30;3.30;;;;;;;6.70;100.00;101917.78;4967173;28;20042;-70
2022/04/11 07:23:46;;;;;;;8.77;2.70;;;;;;;6.58;100.00;101921.75;4950000;28;20065;-70
2022/04/11 07:26:11;;;;;;;9.55;3.53;;;;;;;6.81;100.00;101922.88;4970070;28;20033;-70
2022/04/11 07:28:37;;;;;;;8.68;3.53;;;;;;;6.98;100.00;101923.75;4963108;28;20033;-70
2022/04/11 07:31:02;;;;;;;19.30;5.35;;;;;;;7.21;100.00;101923.16;4954283;28;20140;-71
2022/04/11 07:33:28;;;;;;;14.48;4.22;;;;;;;7.43;100.00;101927.03;4970171;28;20048;-71
2022/04/11 07:35:53;;;;;;;16.48;5.63;;;;;;;7.58;100.00;101926.22;4957898;28;20064;-71
2022/04/11 07:38:19;;;;;;;11.30;4.28;;;;;;;7.74;100.00;101925.38;4966398;28;20033;-71
2022/04/11 07:40:45;;;;;;;12.23;3.95;;;;;;;7.82;100.00;101928.06;4956383;28;20742;-70
2022/04/11 07:43:10;;;;;;;12.80;4.35;;;;;;;7.80;100.00;101940.81;4966754;28;20053;-71
2022/04/11 07:45:36;;;;;;;12.63;3.97;;;;;;;7.99;100.00;101928.06;4953158;28;20049;-71
2022/04/11 07:48:01;;;;;;;12.65;4.22;;;;;;;8.13;100.00;101924.69;4968304;28;20029;-71
2022/04/11 07:50:27;;;;;;;19.92;5.82;;;;;;;8.30;100.00;101929.00;4970831;28;20517;-71
2022/04/11 07:52:53;;;;;;;10.00;3.85;;;;;;;8.50;100.00;101925.97;4953749;28;20135;-72
2022/04/11 07:55:18;;;;;;;10.25;4.45;;;;;;;8.69;100.00;101928.25;4965263;28;20470;-71
2022/04/11 07:57:44;;;;;;;11.95;4.03;;;;;;;9.12;100.00;101923.34;4951111;28;20053;-72
2022/04/11 08:00:10;;;;;;;12.50;4.20;;;;;;;9.47;100.00;101929.16;4964070;28;20033;-71
2022/04/11 08:02:36;;;;;;;11.63;4.20;;;;;;;9.90;95.17;101929.50;4948195;28;20046;-72
2022/04/11 08:05:02;;;;;;;10.65;3.80;;;;;;;10.38;83.91;101933.59;4966930;28;20164;-71
2022/04/11 08:07:32;;;;;;;13.60;3.97;;;;;;;10.61;74.39;101932.69;4968636;28;20060;-72
2022/04/11 08:10:01;;;;;;;10.35;3.35;;;;;;;10.84;67.06;101932.56;4967266;28;20576;-72
2022/04/11 08:12:26;;;;;;;9.27;2.95;;;;;;;10.78;63.99;101922.56;4971025;28;20884;-72
2022/04/11 08:14:54;;;;;;;8.75;3.50;;;;;;;10.99;62.29;101931.53;4949622;28;20053;-72
2022/04/11 08:17:19;;;;;;;8.93;3.55;;;;;;;11.19;62.16;101926.34;4963871;28;20095;-72
2022/04/11 08:19:45;;;;;;;11.05;3.22;;;;;;;11.08;58.14;101918.75;4951938;28;20049;-72
2022/04/11 08:22:10;;;;;;;7.90;2.80;;;;;;;11.20;56.48;101924.50;4968370;28;20998;-71
2022/04/11 08:24:36;;;;;;;11.43;3.38;;;;;;;11.22;57.34;101925.13;4952073;28;20088;-72
2022/04/11 08:27:01;;;;;;;7.13;3.47;;;;;;;11.60;56.95;101920.34;4964594;28;20029;-71
2022/04/11 08:29:27;;;;;;;8.98;3.20;;;;;;;11.90;56.31;101918.38;4960012;28;20068;-72
2022/04/11 08:31:52;;;;;;;5.50;2.75;;;;;;;12.68;51.74;101920.94;4951571;28;20088;-72
2022/04/11 08:34:18;;;;;;;6.10;3.05;;;;;;;12.89;51.45;101918.13;4963768;28;20041;-73
2022/04/11 08:36:44;;;;;;;5.88;2.85;;;;;;;13.11;50.27;101916.13;4952022;28;20140;-72
2022/04/11 08:39:10;;;;;;;8.05;3.28;;;;;;;13.62;49.75;101912.09;4961842;28;20116;-72
2022/04/11 08:41:37;;;;;;;13.13;4.78;;;;;;;14.25;47.18;101907.06;4951391;28;20049;-72
2022/04/11 08:44:07;;;;;;;10.25;2.90;;;;;;;14.64;47.41;101904.50;4968388;28;25644;-71
2022/04/11 08:46:34;;;;;;;6.63;3.03;;;;;;;14.93;46.10;101903.13;4950246;28;20053;-72
2022/04/11 08:49:01;;;;;;;7.28;2.90;;;;;;;14.97;45.89;101905.19;4966129;28;20065;-72
2022/04/11 08:51:30;;;;;;;7.22;2.63;;;;;;;14.73;45.56;101903.19;4965264;28;20029;-72
2022/04/11 08:53:56;;;;;;;8.38;2.85;;;;;;;14.56;46.19;101902.81;4952655;28;20050;-72
2022/04/11 08:56:22;;;;;;;9.32;3.25;;;;;;;14.58;46.13;101899.91;4967576;28;23553;-72
2022/04/11 08:58:47;;;;;;;8.85;3.15;;;;;;;14.97;44.09;101891.59;4949862;28;20088;-72
2022/04/11 09:01:12;;;;;;;9.93;3.30;;;;;;;15.23;44.53;101901.50;4965581;28;20033;-72
2022/04/11 09:03:38;;;;;;;7.03;2.72;;;;;;;15.30;44.87;101897.91;4951745;28;20053;-72
2022/04/11 09:06:09;;;;;;;13.60;3.25;;;;;;;15.27;44.47;101899.19;4965944;28;20359;-72
2022/04/11 09:08:42;;;;;;;10.30;3.25;;;;;;;15.55;45.50;101903.38;4950737;28;20050;-72
2022/04/11 09:11:08;;;;;;;9.27;3.10;;;;;;;16.07;41.69;101904.00;4953332;28;20056;-72
2022/04/11 09:13:50;;;;;;;8.45;2.70;;;;;;;15.92;41.70;101901.63;4970443;28;20033;-72
2022/04/11 09:16:16;;;;;;;10.75;2.38;;;;;;;15.97;42.92;101905.38;4957105;28;21138;-72
2022/04/11 09:19:00;;;;;;;12.00;4.25;;;;;;;15.93;43.13;101898.69;4951247;28;20038;-72
2022/04/11 09:21:25;;;;;;;10.25;2.80;;;;;;;15.63;43.54;101903.13;4950072;28;20648;-73
2022/04/11 09:24:14;;;;;;;8.80;2.63;;;;;;;15.79;41.78;101901.75;4967772;28;20038;-72
2022/04/11 09:26:43;;;;;;;7.88;2.47;;;;;;;15.61;44.08;101894.34;4953201;28;20551;-72
2022/04/11 09:29:08;;;;;;;5.78;2.05;;;;;;;15.52;42.79;101894.63;4966231;28;20048;-71
2022/04/11 09:31:34;;;;;;;5.32;2.03;;;;;;;15.25;43.25;101895.84;4949352;28;20176;-72
2022/04/11 09:34:16;;;;;;;5.07;2.00;;;;;;;15.44;43.56;101894.03;4967058;28;20127;-72
2022/04/11 09:36:50;;;;;;;8.18;1.98;;;;;;;14.51;43.99;101889.94;4952196;28;20647;-72
2022/04/11 09:39:16;;;;;;;;;;;;;;;14.71;42.73;101897.16;4965696;28;20042;-71
2022/04/11 09:41:46;;;;;;;7.80;1.90;;;;;;;14.60;42.50;101893.25;4949427;28;20075;-71
2022/04/11 09:44:22;;;;;;;8.30;1.63;;;;;;;14.83;40.46;101892.72;4970041;28;20036;-72
2022/04/11 09:46:49;;;;;;;5.30;0.98;;;;;;;14.29;39.33;101888.50;4961902;28;20045;-71
2022/04/11 09:49:15;;;;;;;6.90;1.60;;;;;;;14.73;41.80;101886.91;4965071;28;20049;-71
2022/04/11 09:52:00;;;;;;;7.07;1.70;;;;;;;15.26;40.97;101882.03;4963940;28;20037;-72
2022/04/11 09:54:26;;;;;;;10.75;2.20;;;;;;;15.25;40.58;101879.56;4950214;28;20045;-71
2022/04/11 09:56:53;;;;;;;5.57;1.60;;;;;;;15.20;41.28;101871.25;4964312;28;20108;-71
2022/04/11 09:59:21;;;;;;;10.27;1.60;;;;;;;15.83;37.67;101876.66;4935601;28;20057;-72
2022/04/11 10:01:47;;;;;;;8.63;2.00;;;;;;;15.54;40.64;101872.66;4930658;28;20073;-71
2022/04/11 10:04:13;;;;;;;6.68;1.60;;;;;;;15.33;40.82;101873.03;4940897;28;20064;-72
2022/04/11 10:06:38;;;;;;;8.85;1.80;;;;;;;15.26;42.38;101867.66;4949148;28;20033;-72
2022/04/11 10:09:04;;;;;;;5.97;1.90;;;;;;;15.42;41.63;101858.97;4962567;28;20069;-72
2022/04/11 10:11:30;;;;;;;5.80;1.80;;;;;;;15.16;42.12;101851.88;4941458;28;20049;-72
2022/04/11 10:13:56;;;;;;;4.10;1.70;;;;;;;15.36;39.73;101853.59;4964433;28;20116;-71
2022/04/11 10:16:22;;;;;;;5.80;1.95;;;;;;;15.07;43.13;101850.44;4950002;28;20045;-70
2022/04/11 10:18:48;;;;;;;6.47;1.95;;;;;;;15.46;41.41;101843.06;4954267;28;20026;-72
2022/04/11 10:21:14;;;;;;;8.90;2.35;;;;;;;15.59;41.19;101853.00;4949315;28;20057;-71
2022/04/11 10:24:03;;;;;;;7.70;2.50;;;;;;;15.92;40.39;101859.00;4952377;28;20138;-72
2022/04/11 10:26:43;;;;;;;8.07;2.00;;;;;;;15.99;38.19;101851.59;4951840;28;20088;-71
2022/04/11 10:29:31;;;;;;;8.52;1.85;;;;;;;15.47;38.80;101848.28;4970049;28;20037;-71
2022/04/11 10:32:10;;;;;;;4.45;1.65;;;;;;;15.70;37.85;101844.16;4952432;28;20050;-71
2022/04/11 10:34:56;;;;;;;5.60;1.98;;;;;;;15.64;38.12;101855.88;4954534;28;20251;-71
2022/04/11 10:37:25;;;;;;;5.68;1.50;;;;;;;15.71;36.90;101851.25;4953273;28;20067;-71
2022/04/11 10:39:51;;;;;;;5.50;1.70;;;;;;;15.63;37.23;101844.19;4969864;28;20028;-71
2022/04/11 10:42:22;;;;;;;8.52;1.83;;;;;;;15.61;37.96;101848.16;4963379;28;20159;-71
2022/04/11 10:44:50;;;;;;;5.57;1.65;;;;;;;15.70;37.17;101844.16;4967709;28;20038;-71
2022/04/11 10:47:15;;;;;;;7.20;1.95;;;;;;;15.81;36.84;101846.16;4966171;28;20061;-71
2022/04/11 10:49:50;;;;;;;5.35;1.67;;;;;;;15.99;36.90;101843.44;4951369;28;20045;-71
2022/04/11 10:52:32;;;;;;;5.30;1.92;;;;;;;16.53;35.89;101841.00;4968391;28;20079;-71
2022/04/11 10:55:07;;;;;;;8.57;2.30;;;;;;;16.16;36.15;101837.44;4951156;28;20062;-71
2022/04/11 10:57:34;;;;;;;4.20;1.67;;;;;;;16.17;36.43;101837.19;4968093;28;20026;-71
2022/04/11 11:00:06;;;;;;;8.85;2.05;;;;;;;16.34;35.60;101831.16;4950297;28;20053;-71
2022/04/11 11:02:53;;;;;;;4.82;1.70;;;;;;;16.15;35.83;101835.78;4966362;28;22540;-72
2022/04/11 11:05:22;;;;;;;3.92;1.55;;;;;;;16.17;37.11;101830.94;4954282;28;23309;-72
2022/04/11 11:07:47;;;;;;;5.07;1.92;;;;;;;16.18;36.29;101824.44;4967822;28;20040;-72
2022/04/11 11:10:17;;;;;;;5.13;1.90;;;;;;;16.42;37.23;101822.69;4952258;28;20076;-72
2022/04/11 11:12:43;;;;;;;6.78;2.20;;;;;;;16.31;36.08;101834.34;4970582;28;20039;-72
2022/04/11 11:15:25;;;;;;;4.68;1.80;;;;;;;16.49;36.25;101825.34;4965250;28;20029;-72